Arlington, Tennessee
Current Conditions -  °F | °C
As of 12:55 PM on Sunday 21 Dec 2014 (Local Time) from KNQA Reporting Station
Scattered Clouds Scattered Clouds  
Wind Chill: 54°   Ceiling: Unl
Heat Index: 54°   Visibility: 10mi
Dew Point: 34°   Wind: 0mph
Humidity: 47%   Direction: NA
Pressure: 30.1"   Gusts: NA
Location:  35.3°N, 89.66°W
Report Text: KNQA 211855Z 00000KT 10SM SCT120 12/01 A3010
Loading
Personal Weather Stations






























Interactive Weather Map New forecast layout! Learn more

10-Day Weather Forecast

Advertisements
Track Severe Weather on mobile